sensor_id;sensor_type;location;lat;lon;timestamp;temperature;humidity
9223;DHT22;7557;51.698;3.942;2023-05-07T00:02:12;17.30;99.90
9223;DHT22;7557;51.698;3.942;2023-05-07T00:04:40;17.20;99.90
9223;DHT22;7557;51.698;3.942;2023-05-07T00:07:08;17.20;99.90
9223;DHT22;7557;51.698;3.942;2023-05-07T00:09:36;17.20;99.90
9223;DHT22;7557;51.698;3.942;2023-05-07T00:12:04;17.10;99.90
9223;DHT22;7557;51.698;3.942;2023-05-07T00:14:32;17.10;99.90
9223;DHT22;7557;51.698;3.942;2023-05-07T00:17:01;17.10;99.90
9223;DHT22;7557;51.698;3.942;2023-05-07T00:19:29;17.00;99.90
9223;DHT22;7557;51.698;3.942;2023-05-07T00:21:57;17.00;99.90
9223;DHT22;7557;51.698;3.942;2023-05-07T00:24:25;17.00;99.90
9223;DHT22;7557;51.698;3.942;2023-05-07T00:26:53;17.00;99.90
9223;DHT22;7557;51.698;3.942;2023-05-07T00:29:20;17.00;99.90
9223;DHT22;7557;51.698;3.942;2023-05-07T00:31:49;17.00;99.90
9223;DHT22;7557;51.698;3.942;2023-05-07T00:34:19;17.00;99.90
9223;DHT22;7557;51.698;3.942;2023-05-07T00:36:47;17.00;99.90
9223;DHT22;7557;51.698;3.942;2023-05-07T00:39:14;16.90;99.90
9223;DHT22;7557;51.698;3.942;2023-05-07T00:41:42;16.90;99.90
9223;DHT22;7557;51.698;3.942;2023-05-07T00:44:09;16.90;99.90
9223;DHT22;7557;51.698;3.942;2023-05-07T00:46:37;16.90;99.90
9223;DHT22;7557;51.698;3.942;2023-05-07T00:49:05;16.90;99.90
9223;DHT22;7557;51.698;3.942;2023-05-07T00:51:35;16.90;99.90
9223;DHT22;7557;51.698;3.942;2023-05-07T00:54:03;17.00;99.90
9223;DHT22;7557;51.698;3.942;2023-05-07T00:56:32;17.00;99.90
9223;DHT22;7557;51.698;3.942;2023-05-07T00:59:01;17.00;99.90
9223;DHT22;7557;51.698;3.942;2023-05-07T01:01:28;17.00;99.90
9223;DHT22;7557;51.698;3.942;2023-05-07T01:03:56;17.00;99.90
9223;DHT22;7557;51.698;3.942;2023-05-07T01:06:25;17.00;99.90
9223;DHT22;7557;51.698;3.942;2023-05-07T01:08:55;17.00;99.90
9223;DHT22;7557;51.698;3.942;2023-05-07T01:11:23;17.00;99.90
9223;DHT22;7557;51.698;3.942;2023-05-07T01:13:51;17.00;99.90
9223;DHT22;7557;51.698;3.942;2023-05-07T01:16:19;17.00;99.90
9223;DHT22;7557;51.698;3.942;2023-05-07T01:18:47;17.00;99.90
9223;DHT22;7557;51.698;3.942;2023-05-07T01:21:16;17.00;99.90
9223;DHT22;7557;51.698;3.942;2023-05-07T01:23:46;17.00;99.90
9223;DHT22;7557;51.698;3.942;2023-05-07T01:26:14;17.00;99.90
9223;DHT22;7557;51.698;3.942;2023-05-07T01:28:41;17.00;99.90
9223;DHT22;7557;51.698;3.942;2023-05-07T01:31:09;17.00;99.90
9223;DHT22;7557;51.698;3.942;2023-05-07T01:33:38;17.00;99.90
9223;DHT22;7557;51.698;3.942;2023-05-07T01:36:08;16.90;99.90
9223;DHT22;7557;51.698;3.942;2023-05-07T01:38:36;17.00;99.90
9223;DHT22;7557;51.698;3.942;2023-05-07T01:41:06;16.90;99.90
9223;DHT22;7557;51.698;3.942;2023-05-07T01:43:34;16.90;99.90
9223;DHT22;7557;51.698;3.942;2023-05-07T01:46:01;16.90;99.90
9223;DHT22;7557;51.698;3.942;2023-05-07T01:48:29;16.90;99.90
9223;DHT22;7557;51.698;3.942;2023-05-07T01:50:57;16.80;99.90
9223;DHT22;7557;51.698;3.942;2023-05-07T01:53:27;16.80;99.90
9223;DHT22;7557;51.698;3.942;2023-05-07T01:55:54;16.80;99.90
9223;DHT22;7557;51.698;3.942;2023-05-07T01:58:23;16.70;99.90
9223;DHT22;7557;51.698;3.942;2023-05-07T02:00:50;16.80;99.90
9223;DHT22;7557;51.698;3.942;2023-05-07T02:03:17;16.70;99.90
9223;DHT22;7557;51.698;3.942;2023-05-07T02:05:46;16.70;99.90
9223;DHT22;7557;51.698;3.942;2023-05-07T02:08:13;16.70;99.90
9223;DHT22;7557;51.698;3.942;2023-05-07T02:10:41;16.70;99.90
9223;DHT22;7557;51.698;3.942;2023-05-07T02:13:08;16.70;99.90
9223;DHT22;7557;51.698;3.942;2023-05-07T02:15:36;16.70;99.90
9223;DHT22;7557;51.698;3.942;2023-05-07T02:18:05;16.70;99.90
9223;DHT22;7557;51.698;3.942;2023-05-07T02:20:33;16.70;99.90
9223;DHT22;7557;51.698;3.942;2023-05-07T02:23:00;16.70;99.90
9223;DHT22;7557;51.698;3.942;2023-05-07T02:25:27;16.70;99.90
9223;DHT22;7557;51.698;3.942;2023-05-07T02:27:55;16.70;99.90
9223;DHT22;7557;51.698;3.942;2023-05-07T02:30:22;16.60;99.90
9223;DHT22;7557;51.698;3.942;2023-05-07T02:32:52;16.60;99.90
9223;DHT22;7557;51.698;3.942;2023-05-07T02:35:19;16.60;99.90
9223;DHT22;7557;51.698;3.942;2023-05-07T02:37:46;16.60;99.90
9223;DHT22;7557;51.698;3.942;2023-05-07T02:40:13;16.60;99.90
9223;DHT22;7557;51.698;3.942;2023-05-07T02:42:40;16.60;99.90
9223;DHT22;7557;51.698;3.942;2023-05-07T02:45:09;16.50;99.90
9223;DHT22;7557;51.698;3.942;2023-05-07T02:47:36;16.50;99.90
9223;DHT22;7557;51.698;3.942;2023-05-07T02:50:06;16.50;99.90
9223;DHT22;7557;51.698;3.942;2023-05-07T02:52:34;16.50;99.90
9223;DHT22;7557;51.698;3.942;2023-05-07T02:55:01;16.40;99.90
9223;DHT22;7557;51.698;3.942;2023-05-07T02:57:28;16.40;99.90
9223;DHT22;7557;51.698;3.942;2023-05-07T02:59:57;16.40;99.90
9223;DHT22;7557;51.698;3.942;2023-05-07T03:02:24;16.40;99.90
9223;DHT22;7557;51.698;3.942;2023-05-07T03:04:52;16.40;99.90
9223;DHT22;7557;51.698;3.942;2023-05-07T03:07:20;16.30;99.90
9223;DHT22;7557;51.698;3.942;2023-05-07T03:09:48;16.30;99.90
9223;DHT22;7557;51.698;3.942;2023-05-07T03:12:15;16.30;99.90
9223;DHT22;7557;51.698;3.942;2023-05-07T03:14:42;16.30;99.90
9223;DHT22;7557;51.698;3.942;2023-05-07T03:17:09;16.30;99.90
9223;DHT22;7557;51.698;3.942;2023-05-07T03:19:36;16.30;99.90
9223;DHT22;7557;51.698;3.942;2023-05-07T03:22:04;16.30;99.90
9223;DHT22;7557;51.698;3.942;2023-05-07T03:24:32;16.30;99.90
9223;DHT22;7557;51.698;3.942;2023-05-07T03:27:00;16.30;99.90
9223;DHT22;7557;51.698;3.942;2023-05-07T03:29:27;16.30;99.90
9223;DHT22;7557;51.698;3.942;2023-05-07T03:31:55;16.20;99.90
9223;DHT22;7557;51.698;3.942;2023-05-07T03:34:24;16.20;99.90
9223;DHT22;7557;51.698;3.942;2023-05-07T03:36:51;16.20;99.90
9223;DHT22;7557;51.698;3.942;2023-05-07T03:39:18;16.20;99.90
9223;DHT22;7557;51.698;3.942;2023-05-07T03:41:47;16.20;99.90
9223;DHT22;7557;51.698;3.942;2023-05-07T03:44:15;16.30;99.90
9223;DHT22;7557;51.698;3.942;2023-05-07T03:46:42;16.30;99.90
9223;DHT22;7557;51.698;3.942;2023-05-07T03:49:09;16.30;99.90
9223;DHT22;7557;51.698;3.942;2023-05-07T03:51:36;16.30;99.90
9223;DHT22;7557;51.698;3.942;2023-05-07T03:54:04;16.30;99.90
9223;DHT22;7557;51.698;3.942;2023-05-07T03:56:31;16.30;99.90
9223;DHT22;7557;51.698;3.942;2023-05-07T03:59:00;16.30;99.90
9223;DHT22;7557;51.698;3.942;2023-05-07T04:01:27;16.30;99.90
9223;DHT22;7557;51.698;3.942;2023-05-07T04:03:55;16.30;99.90
9223;DHT22;7557;51.698;3.942;2023-05-07T04:06:22;16.30;99.90
9223;DHT22;7557;51.698;3.942;2023-05-07T04:08:49;16.30;99.90
9223;DHT22;7557;51.698;3.942;2023-05-07T04:11:17;16.30;99.90
9223;DHT22;7557;51.698;3.942;2023-05-07T04:13:44;16.30;99.90
9223;DHT22;7557;51.698;3.942;2023-05-07T04:16:12;16.30;99.90
9223;DHT22;7557;51.698;3.942;2023-05-07T04:18:40;16.30;99.90
9223;DHT22;7557;51.698;3.942;2023-05-07T04:21:14;16.30;99.90
9223;DHT22;7557;51.698;3.942;2023-05-07T04:23:41;16.30;99.90
9223;DHT22;7557;51.698;3.942;2023-05-07T04:26:08;16.30;99.90
9223;DHT22;7557;51.698;3.942;2023-05-07T04:28:35;16.30;99.90
9223;DHT22;7557;51.698;3.942;2023-05-07T04:31:03;16.30;99.90
9223;DHT22;7557;51.698;3.942;2023-05-07T04:33:33;16.30;99.90
9223;DHT22;7557;51.698;3.942;2023-05-07T04:36:01;16.40;99.90
9223;DHT22;7557;51.698;3.942;2023-05-07T04:38:29;16.40;99.90
9223;DHT22;7557;51.698;3.942;2023-05-07T04:40:57;16.40;99.90
9223;DHT22;7557;51.698;3.942;2023-05-07T04:43:24;16.40;99.90
9223;DHT22;7557;51.698;3.942;2023-05-07T04:45:51;16.40;99.90
9223;DHT22;7557;51.698;3.942;2023-05-07T04:48:19;16.40;99.90
9223;DHT22;7557;51.698;3.942;2023-05-07T04:50:49;16.40;99.90
9223;DHT22;7557;51.698;3.942;2023-05-07T04:53:16;16.40;99.90
9223;DHT22;7557;51.698;3.942;2023-05-07T04:55:44;16.40;99.90
9223;DHT22;7557;51.698;3.942;2023-05-07T04:58:11;16.40;99.90
9223;DHT22;7557;51.698;3.942;2023-05-07T05:00:38;16.40;99.90
9223;DHT22;7557;51.698;3.942;2023-05-07T05:03:06;16.40;99.90
9223;DHT22;7557;51.698;3.942;2023-05-07T05:05:33;16.40;99.90
9223;DHT22;7557;51.698;3.942;2023-05-07T05:08:02;16.50;99.90
9223;DHT22;7557;51.698;3.942;2023-05-07T05:10:30;16.50;99.90
9223;DHT22;7557;51.698;3.942;2023-05-07T05:12:57;16.50;99.90
9223;DHT22;7557;51.698;3.942;2023-05-07T05:15:24;16.50;99.90
9223;DHT22;7557;51.698;3.942;2023-05-07T05:17:51;16.60;99.90
9223;DHT22;7557;51.698;3.942;2023-05-07T05:20:18;16.60;99.90
9223;DHT22;7557;51.698;3.942;2023-05-07T05:22:45;16.60;99.90
9223;DHT22;7557;51.698;3.942;2023-05-07T05:25:14;16.60;99.90
9223;DHT22;7557;51.698;3.942;2023-05-07T05:27:42;16.60;99.90
9223;DHT22;7557;51.698;3.942;2023-05-07T05:30:10;16.70;99.90
9223;DHT22;7557;51.698;3.942;2023-05-07T05:32:37;16.70;99.90
9223;DHT22;7557;51.698;3.942;2023-05-07T05:35:05;16.70;99.90
9223;DHT22;7557;51.698;3.942;2023-05-07T05:37:32;16.70;99.90
9223;DHT22;7557;51.698;3.942;2023-05-07T05:39:59;16.70;99.90
9223;DHT22;7557;51.698;3.942;2023-05-07T05:42:28;16.70;99.90
9223;DHT22;7557;51.698;3.942;2023-05-07T05:44:55;16.70;99.90
9223;DHT22;7557;51.698;3.942;2023-05-07T05:47:23;16.80;99.90
9223;DHT22;7557;51.698;3.942;2023-05-07T05:49:50;16.80;99.90
9223;DHT22;7557;51.698;3.942;2023-05-07T05:52:17;16.80;99.90
9223;DHT22;7557;51.698;3.942;2023-05-07T05:54:44;16.80;99.90
9223;DHT22;7557;51.698;3.942;2023-05-07T05:57:11;16.90;99.90
9223;DHT22;7557;51.698;3.942;2023-05-07T05:59:40;16.80;99.90
9223;DHT22;7557;51.698;3.942;2023-05-07T06:02:07;16.90;99.90
9223;DHT22;7557;51.698;3.942;2023-05-07T06:04:35;16.90;99.90
9223;DHT22;7557;51.698;3.942;2023-05-07T06:07:02;16.90;99.90
9223;DHT22;7557;51.698;3.942;2023-05-07T06:09:29;17.00;99.90
9223;DHT22;7557;51.698;3.942;2023-05-07T06:11:56;17.00;99.90
9223;DHT22;7557;51.698;3.942;2023-05-07T06:14:23;17.00;99.90
9223;DHT22;7557;51.698;3.942;2023-05-07T06:16:52;17.10;99.90
9223;DHT22;7557;51.698;3.942;2023-05-07T06:19:20;17.10;99.90
9223;DHT22;7557;51.698;3.942;2023-05-07T06:21:49;17.20;99.90
9223;DHT22;7557;51.698;3.942;2023-05-07T06:24:17;17.20;99.90
9223;DHT22;7557;51.698;3.942;2023-05-07T06:26:44;17.30;99.90
9223;DHT22;7557;51.698;3.942;2023-05-07T06:29:11;17.30;99.90
9223;DHT22;7557;51.698;3.942;2023-05-07T06:31:38;17.50;99.90
9223;DHT22;7557;51.698;3.942;2023-05-07T06:34:07;17.60;99.90
9223;DHT22;7557;51.698;3.942;2023-05-07T06:36:35;17.60;99.90
9223;DHT22;7557;51.698;3.942;2023-05-07T06:39:02;17.70;99.90
9223;DHT22;7557;51.698;3.942;2023-05-07T06:41:29;17.90;99.90
9223;DHT22;7557;51.698;3.942;2023-05-07T06:43:57;18.10;99.90
9223;DHT22;7557;51.698;3.942;2023-05-07T06:46:24;18.30;99.90
9223;DHT22;7557;51.698;3.942;2023-05-07T06:48:52;18.50;99.90
9223;DHT22;7557;51.698;3.942;2023-05-07T06:51:20;18.60;99.90
9223;DHT22;7557;51.698;3.942;2023-05-07T06:53:49;18.70;99.90
9223;DHT22;7557;51.698;3.942;2023-05-07T06:56:19;18.80;99.90
9223;DHT22;7557;51.698;3.942;2023-05-07T06:58:46;19.00;99.90
9223;DHT22;7557;51.698;3.942;2023-05-07T07:01:14;19.20;99.90
9223;DHT22;7557;51.698;3.942;2023-05-07T07:03:42;19.40;99.90
9223;DHT22;7557;51.698;3.942;2023-05-07T07:06:09;19.40;99.90
9223;DHT22;7557;51.698;3.942;2023-05-07T07:08:38;19.50;99.90
9223;DHT22;7557;51.698;3.942;2023-05-07T07:11:06;19.60;99.90
9223;DHT22;7557;51.698;3.942;2023-05-07T07:13:33;19.70;99.90
9223;DHT22;7557;51.698;3.942;2023-05-07T07:16:01;19.80;99.90
9223;DHT22;7557;51.698;3.942;2023-05-07T07:18:28;19.90;99.90
9223;DHT22;7557;51.698;3.942;2023-05-07T07:20:56;20.00;99.90
9223;DHT22;7557;51.698;3.942;2023-05-07T07:23:24;20.00;99.90
9223;DHT22;7557;51.698;3.942;2023-05-07T07:25:53;20.10;99.90
9223;DHT22;7557;51.698;3.942;2023-05-07T07:28:21;20.20;99.90
9223;DHT22;7557;51.698;3.942;2023-05-07T07:30:49;20.20;99.90
9223;DHT22;7557;51.698;3.942;2023-05-07T07:33:17;20.20;99.90
9223;DHT22;7557;51.698;3.942;2023-05-07T07:35:47;20.20;99.90
9223;DHT22;7557;51.698;3.942;2023-05-07T07:38:15;20.20;99.90
9223;DHT22;7557;51.698;3.942;2023-05-07T07:40:43;20.30;99.90
9223;DHT22;7557;51.698;3.942;2023-05-07T07:43:14;20.30;99.90
9223;DHT22;7557;51.698;3.942;2023-05-07T07:45:42;20.30;99.90
9223;DHT22;7557;51.698;3.942;2023-05-07T07:48:09;20.40;99.90
9223;DHT22;7557;51.698;3.942;2023-05-07T07:50:37;20.40;99.90
9223;DHT22;7557;51.698;3.942;2023-05-07T07:53:05;20.40;99.90
9223;DHT22;7557;51.698;3.942;2023-05-07T07:55:32;20.40;99.90
9223;DHT22;7557;51.698;3.942;2023-05-07T07:58:05;20.40;99.90
9223;DHT22;7557;51.698;3.942;2023-05-07T08:00:34;20.40;99.90
9223;DHT22;7557;51.698;3.942;2023-05-07T08:03:01;20.40;99.90
9223;DHT22;7557;51.698;3.942;2023-05-07T08:05:29;20.40;99.90
9223;DHT22;7557;51.698;3.942;2023-05-07T08:07:57;20.40;99.90
9223;DHT22;7557;51.698;3.942;2023-05-07T08:10:24;20.50;99.90
9223;DHT22;7557;51.698;3.942;2023-05-07T08:12:52;20.50;99.90
9223;DHT22;7557;51.698;3.942;2023-05-07T08:15:20;20.50;99.90
9223;DHT22;7557;51.698;3.942;2023-05-07T08:17:48;20.50;99.90
9223;DHT22;7557;51.698;3.942;2023-05-07T08:20:16;20.40;99.90
9223;DHT22;7557;51.698;3.942;2023-05-07T08:22:43;20.40;99.90
9223;DHT22;7557;51.698;3.942;2023-05-07T08:25:10;20.60;99.90
9223;DHT22;7557;51.698;3.942;2023-05-07T08:27:37;20.90;99.90
9223;DHT22;7557;51.698;3.942;2023-05-07T08:30:06;21.20;99.90
9223;DHT22;7557;51.698;3.942;2023-05-07T08:32:33;21.50;99.90
9223;DHT22;7557;51.698;3.942;2023-05-07T08:35:02;21.60;99.90
9223;DHT22;7557;51.698;3.942;2023-05-07T08:37:29;21.80;99.90
9223;DHT22;7557;51.698;3.942;2023-05-07T08:39:56;21.90;99.90
9223;DHT22;7557;51.698;3.942;2023-05-07T08:42:24;21.90;99.90
9223;DHT22;7557;51.698;3.942;2023-05-07T08:44:51;21.80;99.90
9223;DHT22;7557;51.698;3.942;2023-05-07T08:47:21;21.70;99.90
9223;DHT22;7557;51.698;3.942;2023-05-07T08:49:49;21.80;99.90
9223;DHT22;7557;51.698;3.942;2023-05-07T08:52:18;21.90;99.90
9223;DHT22;7557;51.698;3.942;2023-05-07T08:54:47;22.00;99.90
9223;DHT22;7557;51.698;3.942;2023-05-07T08:57:14;22.10;99.90
9223;DHT22;7557;51.698;3.942;2023-05-07T08:59:41;22.10;99.90
9223;DHT22;7557;51.698;3.942;2023-05-07T09:02:10;22.00;99.90
9223;DHT22;7557;51.698;3.942;2023-05-07T09:04:38;22.00;99.90
9223;DHT22;7557;51.698;3.942;2023-05-07T09:07:05;22.00;99.90
9223;DHT22;7557;51.698;3.942;2023-05-07T09:09:34;22.00;99.90
9223;DHT22;7557;51.698;3.942;2023-05-07T09:12:01;22.10;99.90
9223;DHT22;7557;51.698;3.942;2023-05-07T09:14:29;22.20;99.90
9223;DHT22;7557;51.698;3.942;2023-05-07T09:16:57;22.40;99.90
9223;DHT22;7557;51.698;3.942;2023-05-07T09:19:24;22.50;99.90
9223;DHT22;7557;51.698;3.942;2023-05-07T09:21:58;22.60;99.90
9223;DHT22;7557;51.698;3.942;2023-05-07T09:24:26;22.60;99.90
9223;DHT22;7557;51.698;3.942;2023-05-07T09:26:57;22.70;99.90
9223;DHT22;7557;51.698;3.942;2023-05-07T09:29:26;22.80;99.90
9223;DHT22;7557;51.698;3.942;2023-05-07T09:31:54;22.80;99.90
9223;DHT22;7557;51.698;3.942;2023-05-07T09:34:21;22.90;99.90
9223;DHT22;7557;51.698;3.942;2023-05-07T09:36:49;22.90;99.90
9223;DHT22;7557;51.698;3.942;2023-05-07T09:39:16;23.00;99.90
9223;DHT22;7557;51.698;3.942;2023-05-07T09:41:44;23.10;99.90
9223;DHT22;7557;51.698;3.942;2023-05-07T09:44:14;23.20;99.90
9223;DHT22;7557;51.698;3.942;2023-05-07T09:46:43;23.30;99.90
9223;DHT22;7557;51.698;3.942;2023-05-07T09:49:16;23.40;99.90
9223;DHT22;7557;51.698;3.942;2023-05-07T09:51:48;23.50;99.90
9223;DHT22;7557;51.698;3.942;2023-05-07T09:54:16;23.60;99.90
9223;DHT22;7557;51.698;3.942;2023-05-07T09:56:45;23.70;99.90
9223;DHT22;7557;51.698;3.942;2023-05-07T09:59:15;23.80;99.90
9223;DHT22;7557;51.698;3.942;2023-05-07T10:01:44;23.80;99.90
9223;DHT22;7557;51.698;3.942;2023-05-07T10:04:11;23.80;99.90
9223;DHT22;7557;51.698;3.942;2023-05-07T10:06:39;23.70;99.90
9223;DHT22;7557;51.698;3.942;2023-05-07T10:09:07;23.80;99.90
9223;DHT22;7557;51.698;3.942;2023-05-07T10:11:37;23.80;99.90
9223;DHT22;7557;51.698;3.942;2023-05-07T10:14:04;23.80;99.90
9223;DHT22;7557;51.698;3.942;2023-05-07T10:16:34;23.70;99.90
9223;DHT22;7557;51.698;3.942;2023-05-07T10:19:03;23.70;99.90
9223;DHT22;7557;51.698;3.942;2023-05-07T10:21:31;23.70;99.90
9223;DHT22;7557;51.698;3.942;2023-05-07T10:24:05;23.70;99.90
9223;DHT22;7557;51.698;3.942;2023-05-07T10:26:35;23.70;99.90
9223;DHT22;7557;51.698;3.942;2023-05-07T10:29:07;23.70;99.90
9223;DHT22;7557;51.698;3.942;2023-05-07T10:31:52;23.70;99.90
9223;DHT22;7557;51.698;3.942;2023-05-07T10:34:23;23.70;99.90
9223;DHT22;7557;51.698;3.942;2023-05-07T10:36:52;23.70;99.90
9223;DHT22;7557;51.698;3.942;2023-05-07T10:39:20;23.70;99.90
9223;DHT22;7557;51.698;3.942;2023-05-07T10:41:48;23.80;99.90
9223;DHT22;7557;51.698;3.942;2023-05-07T10:44:25;23.80;99.90
9223;DHT22;7557;51.698;3.942;2023-05-07T10:47:11;23.80;99.90
9223;DHT22;7557;51.698;3.942;2023-05-07T10:52:39;23.80;99.90
9223;DHT22;7557;51.698;3.942;2023-05-07T10:55:21;23.80;99.90
9223;DHT22;7557;51.698;3.942;2023-05-07T10:57:52;23.80;99.90
9223;DHT22;7557;51.698;3.942;2023-05-07T11:00:41;23.80;99.90
9223;DHT22;7557;51.698;3.942;2023-05-07T11:03:10;23.70;99.90
9223;DHT22;7557;51.698;3.942;2023-05-07T11:05:37;23.70;99.90
9223;DHT22;7557;51.698;3.942;2023-05-07T11:08:05;23.60;99.90
9223;DHT22;7557;51.698;3.942;2023-05-07T11:10:49;23.40;99.90
9223;DHT22;7557;51.698;3.942;2023-05-07T11:13:17;23.10;99.90
9223;DHT22;7557;51.698;3.942;2023-05-07T11:15:46;22.70;99.90
9223;DHT22;7557;51.698;3.942;2023-05-07T11:18:17;22.40;99.90
9223;DHT22;7557;51.698;3.942;2023-05-07T11:20:57;22.20;99.90
9223;DHT22;7557;51.698;3.942;2023-05-07T11:26:46;21.90;99.90
9223;DHT22;7557;51.698;3.942;2023-05-07T11:29:18;21.90;99.90
9223;DHT22;7557;51.698;3.942;2023-05-07T11:31:49;21.90;99.90
9223;DHT22;7557;51.698;3.942;2023-05-07T11:34:23;22.10;99.90
9223;DHT22;7557;51.698;3.942;2023-05-07T11:36:50;22.20;99.90
9223;DHT22;7557;51.698;3.942;2023-05-07T11:39:29;22.30;99.90
9223;DHT22;7557;51.698;3.942;2023-05-07T11:41:57;22.40;99.90
9223;DHT22;7557;51.698;3.942;2023-05-07T11:44:24;22.50;99.90
9223;DHT22;7557;51.698;3.942;2023-05-07T11:46:52;22.50;99.90
9223;DHT22;7557;51.698;3.942;2023-05-07T11:49:19;22.60;99.90
9223;DHT22;7557;51.698;3.942;2023-05-07T11:51:48;22.60;99.90
9223;DHT22;7557;51.698;3.942;2023-05-07T11:54:18;22.40;99.90
9223;DHT22;7557;51.698;3.942;2023-05-07T11:56:47;22.10;99.90
9223;DHT22;7557;51.698;3.942;2023-05-07T11:59:17;21.90;99.90
9223;DHT22;7557;51.698;3.942;2023-05-07T12:01:46;21.60;99.90
9223;DHT22;7557;51.698;3.942;2023-05-07T12:04:14;21.40;99.90
9223;DHT22;7557;51.698;3.942;2023-05-07T12:06:47;21.20;99.90
9223;DHT22;7557;51.698;3.942;2023-05-07T12:09:16;21.10;99.90
9223;DHT22;7557;51.698;3.942;2023-05-07T12:11:46;21.00;99.90
9223;DHT22;7557;51.698;3.942;2023-05-07T12:14:13;21.00;99.90
9223;DHT22;7557;51.698;3.942;2023-05-07T12:16:42;21.00;99.90
9223;DHT22;7557;51.698;3.942;2023-05-07T12:19:10;21.10;99.90
9223;DHT22;7557;51.698;3.942;2023-05-07T12:21:38;21.30;99.90
9223;DHT22;7557;51.698;3.942;2023-05-07T12:24:08;21.50;99.90
9223;DHT22;7557;51.698;3.942;2023-05-07T12:26:38;21.70;99.90
9223;DHT22;7557;51.698;3.942;2023-05-07T12:29:06;21.80;99.90
9223;DHT22;7557;51.698;3.942;2023-05-07T12:31:33;21.90;99.90
9223;DHT22;7557;51.698;3.942;2023-05-07T12:34:01;22.00;99.90
9223;DHT22;7557;51.698;3.942;2023-05-07T12:36:36;22.10;99.90
9223;DHT22;7557;51.698;3.942;2023-05-07T12:39:04;22.20;99.90
9223;DHT22;7557;51.698;3.942;2023-05-07T12:41:36;22.30;99.90
9223;DHT22;7557;51.698;3.942;2023-05-07T12:44:04;22.50;99.90
9223;DHT22;7557;51.698;3.942;2023-05-07T12:46:32;22.60;99.90
9223;DHT22;7557;51.698;3.942;2023-05-07T12:49:05;22.60;99.90
9223;DHT22;7557;51.698;3.942;2023-05-07T12:51:34;22.50;99.90
9223;DHT22;7557;51.698;3.942;2023-05-07T12:54:02;22.50;99.90
9223;DHT22;7557;51.698;3.942;2023-05-07T12:56:31;22.50;99.90
9223;DHT22;7557;51.698;3.942;2023-05-07T12:58:59;22.70;99.90
9223;DHT22;7557;51.698;3.942;2023-05-07T13:01:29;22.80;99.90
9223;DHT22;7557;51.698;3.942;2023-05-07T13:04:00;22.90;99.90
9223;DHT22;7557;51.698;3.942;2023-05-07T13:06:29;22.90;99.90
9223;DHT22;7557;51.698;3.942;2023-05-07T13:08:56;23.00;99.90
9223;DHT22;7557;51.698;3.942;2023-05-07T13:11:23;23.00;99.90
9223;DHT22;7557;51.698;3.942;2023-05-07T13:13:51;23.00;99.90
9223;DHT22;7557;51.698;3.942;2023-05-07T13:16:19;23.10;99.90
9223;DHT22;7557;51.698;3.942;2023-05-07T13:18:46;23.10;99.90
9223;DHT22;7557;51.698;3.942;2023-05-07T13:21:14;23.10;99.90
9223;DHT22;7557;51.698;3.942;2023-05-07T13:23:41;23.10;99.90
9223;DHT22;7557;51.698;3.942;2023-05-07T13:26:09;23.00;99.90
9223;DHT22;7557;51.698;3.942;2023-05-07T13:28:41;22.90;99.90
9223;DHT22;7557;51.698;3.942;2023-05-07T13:31:09;22.80;99.90
9223;DHT22;7557;51.698;3.942;2023-05-07T13:33:38;22.70;99.90
9223;DHT22;7557;51.698;3.942;2023-05-07T13:36:05;22.60;99.90
9223;DHT22;7557;51.698;3.942;2023-05-07T13:38:32;22.50;99.90
9223;DHT22;7557;51.698;3.942;2023-05-07T13:41:00;22.50;99.90
9223;DHT22;7557;51.698;3.942;2023-05-07T13:43:27;22.60;99.90
9223;DHT22;7557;51.698;3.942;2023-05-07T13:45:54;22.70;99.90
9223;DHT22;7557;51.698;3.942;2023-05-07T13:48:23;22.70;99.90
9223;DHT22;7557;51.698;3.942;2023-05-07T13:50:52;22.80;99.90
9223;DHT22;7557;51.698;3.942;2023-05-07T13:53:19;22.80;99.90
9223;DHT22;7557;51.698;3.942;2023-05-07T13:55:47;22.90;99.90
9223;DHT22;7557;51.698;3.942;2023-05-07T13:58:14;22.90;99.90
9223;DHT22;7557;51.698;3.942;2023-05-07T14:00:41;22.90;99.90
9223;DHT22;7557;51.698;3.942;2023-05-07T14:03:08;22.90;99.90
9223;DHT22;7557;51.698;3.942;2023-05-07T14:05:36;22.90;99.90
9223;DHT22;7557;51.698;3.942;2023-05-07T14:08:04;22.90;99.90
9223;DHT22;7557;51.698;3.942;2023-05-07T14:10:33;22.90;99.90
9223;DHT22;7557;51.698;3.942;2023-05-07T14:13:00;22.90;99.90
9223;DHT22;7557;51.698;3.942;2023-05-07T14:15:28;22.70;99.90
9223;DHT22;7557;51.698;3.942;2023-05-07T14:17:55;22.40;99.90
9223;DHT22;7557;51.698;3.942;2023-05-07T14:20:24;22.00;99.90
9223;DHT22;7557;51.698;3.942;2023-05-07T14:22:52;21.60;99.90
9223;DHT22;7557;51.698;3.942;2023-05-07T14:25:20;21.40;99.90
9223;DHT22;7557;51.698;3.942;2023-05-07T14:27:47;21.10;99.90
9223;DHT22;7557;51.698;3.942;2023-05-07T14:30:15;21.00;99.90
9223;DHT22;7557;51.698;3.942;2023-05-07T14:32:42;20.90;99.90
9223;DHT22;7557;51.698;3.942;2023-05-07T14:35:10;20.80;99.90
9223;DHT22;7557;51.698;3.942;2023-05-07T14:37:37;20.60;99.90
9223;DHT22;7557;51.698;3.942;2023-05-07T14:40:05;20.60;99.90
9223;DHT22;7557;51.698;3.942;2023-05-07T14:42:34;20.60;99.90
9223;DHT22;7557;51.698;3.942;2023-05-07T14:45:02;20.60;99.90
9223;DHT22;7557;51.698;3.942;2023-05-07T14:47:29;20.70;99.90
9223;DHT22;7557;51.698;3.942;2023-05-07T14:49:56;20.70;99.90
9223;DHT22;7557;51.698;3.942;2023-05-07T14:52:24;20.90;99.90
9223;DHT22;7557;51.698;3.942;2023-05-07T14:54:51;21.00;99.90
9223;DHT22;7557;51.698;3.942;2023-05-07T14:57:19;21.00;99.90
9223;DHT22;7557;51.698;3.942;2023-05-07T14:59:47;21.00;99.90
9223;DHT22;7557;51.698;3.942;2023-05-07T15:02:15;21.10;99.90
9223;DHT22;7557;51.698;3.942;2023-05-07T15:04:43;21.00;99.90
9223;DHT22;7557;51.698;3.942;2023-05-07T15:07:12;21.00;99.90
9223;DHT22;7557;51.698;3.942;2023-05-07T15:09:41;20.90;99.90
9223;DHT22;7557;51.698;3.942;2023-05-07T15:12:08;21.00;99.90
9223;DHT22;7557;51.698;3.942;2023-05-07T15:14:35;20.90;99.90
9223;DHT22;7557;51.698;3.942;2023-05-07T15:17:04;20.80;99.90
9223;DHT22;7557;51.698;3.942;2023-05-07T15:19:31;20.60;99.90
9223;DHT22;7557;51.698;3.942;2023-05-07T15:22:00;20.50;99.90
9223;DHT22;7557;51.698;3.942;2023-05-07T15:24:28;20.40;99.90
9223;DHT22;7557;51.698;3.942;2023-05-07T15:26:55;20.30;99.90
9223;DHT22;7557;51.698;3.942;2023-05-07T15:29:24;20.30;99.90
9223;DHT22;7557;51.698;3.942;2023-05-07T15:31:51;20.30;99.90
9223;DHT22;7557;51.698;3.942;2023-05-07T15:34:20;20.20;99.90
9223;DHT22;7557;51.698;3.942;2023-05-07T15:36:49;20.00;99.90
9223;DHT22;7557;51.698;3.942;2023-05-07T15:39:17;19.80;99.90
9223;DHT22;7557;51.698;3.942;2023-05-07T15:41:44;19.60;99.90
9223;DHT22;7557;51.698;3.942;2023-05-07T15:44:11;19.40;99.90
9223;DHT22;7557;51.698;3.942;2023-05-07T15:46:38;19.20;99.90
9223;DHT22;7557;51.698;3.942;2023-05-07T15:49:06;19.10;99.90
9223;DHT22;7557;51.698;3.942;2023-05-07T15:51:36;19.10;99.90
9223;DHT22;7557;51.698;3.942;2023-05-07T15:54:03;19.00;99.90
9223;DHT22;7557;51.698;3.942;2023-05-07T15:56:31;19.00;99.90
9223;DHT22;7557;51.698;3.942;2023-05-07T15:58:59;19.00;99.90
9223;DHT22;7557;51.698;3.942;2023-05-07T16:01:27;18.90;99.90
9223;DHT22;7557;51.698;3.942;2023-05-07T16:03:54;18.90;99.90
9223;DHT22;7557;51.698;3.942;2023-05-07T16:06:22;18.90;99.90
9223;DHT22;7557;51.698;3.942;2023-05-07T16:08:50;18.90;99.90
9223;DHT22;7557;51.698;3.942;2023-05-07T16:11:18;18.90;99.90
9223;DHT22;7557;51.698;3.942;2023-05-07T16:13:45;18.80;99.90
9223;DHT22;7557;51.698;3.942;2023-05-07T16:16:12;18.60;99.90